createdAt,value
2018-05-29T00:00:35.204Z,42.30
2018-05-29T00:03:02.728Z,42.10
2018-05-29T00:05:30.212Z,43.30
2018-05-29T00:07:57.704Z,44.00
2018-05-29T00:10:25.204Z,45.80
2018-05-29T00:12:52.706Z,42.90
2018-05-29T00:15:20.205Z,44.10
2018-05-29T00:17:47.700Z,44.40
2018-05-29T00:20:15.184Z,43.30
2018-05-29T00:22:42.692Z,43.30
2018-05-29T00:25:10.179Z,43.90
2018-05-29T00:27:38.441Z,45.30
2018-05-29T00:30:06.720Z,45.10
2018-05-29T00:32:34.196Z,45.10
2018-05-29T00:35:02.454Z,43.30
2018-05-29T00:37:29.974Z,43.40
2018-05-29T00:39:57.465Z,43.40
2018-05-29T00:42:24.955Z,44.30
2018-05-29T00:44:52.449Z,43.00
2018-05-29T00:47:19.937Z,44.30
2018-05-29T00:49:47.424Z,43.10
2018-05-29T00:52:14.917Z,43.60
2018-05-29T00:54:42.413Z,43.50
2018-05-29T00:57:09.906Z,43.30
2018-05-29T00:59:37.399Z,42.60
2018-05-29T01:02:04.893Z,42.90
2018-05-29T01:04:32.384Z,43.20
2018-05-29T01:06:59.859Z,44.00
2018-05-29T01:09:27.357Z,44.60
2018-05-29T01:11:55.611Z,45.40
2018-05-29T01:14:23.107Z,45.40
2018-05-29T01:16:51.360Z,45.90
2018-05-29T01:19:18.849Z,45.90
2018-05-29T01:21:47.120Z,47.30
2018-05-29T01:24:14.612Z,47.30
2018-05-29T01:26:42.120Z,47.10
2018-05-29T01:29:09.636Z,47.60
2018-05-29T01:31:37.119Z,48.20
2018-05-29T01:34:04.610Z,46.10
2018-05-29T01:36:32.144Z,47.00
2018-05-29T01:38:59.629Z,47.90
2018-05-29T01:41:27.120Z,49.90
2018-05-29T01:43:55.394Z,48.20
2018-05-29T01:46:22.867Z,48.20
2018-05-29T01:48:50.356Z,48.00
2018-05-29T01:51:17.849Z,48.90
2018-05-29T01:53:45.329Z,50.00
2018-05-29T01:56:12.864Z,50.50
2018-05-29T01:58:40.364Z,51.00
2018-05-29T02:01:07.870Z,51.60
2018-05-29T02:03:35.363Z,52.00
2018-05-29T02:06:02.852Z,51.00
2018-05-29T02:08:30.329Z,51.00
2018-05-29T02:10:57.858Z,52.10
2018-05-29T02:13:25.362Z,53.90
2018-05-29T02:15:52.844Z,55.10
2018-05-29T02:18:21.109Z,57.70
2018-05-29T02:20:48.578Z,57.60
2018-05-29T02:23:16.832Z,60.00
2018-05-29T02:25:44.350Z,60.00
2018-05-29T02:28:11.839Z,61.10
2018-05-29T02:30:39.325Z,61.90
2018-05-29T02:33:06.846Z,62.20
2018-05-29T02:35:34.343Z,61.60
2018-05-29T02:38:01.849Z,61.10
2018-05-29T02:40:29.348Z,61.50
2018-05-29T02:42:56.870Z,63.10
2018-05-29T02:45:24.361Z,63.40
2018-05-29T02:47:51.855Z,64.50
2018-05-29T02:50:19.353Z,63.70
2018-05-29T02:52:46.846Z,63.80
2018-05-29T02:55:14.332Z,62.80
2018-05-29T02:57:41.853Z,62.50
2018-05-29T03:00:09.357Z,63.10
2018-05-29T03:02:36.864Z,62.90
2018-05-29T03:05:05.144Z,60.90
2018-05-29T03:07:33.426Z,60.70
2018-05-29T03:10:01.687Z,62.60
2018-05-29T03:12:29.189Z,62.60
2018-05-29T03:14:56.671Z,62.90
2018-05-29T03:17:24.165Z,62.40
2018-05-29T03:19:51.665Z,64.40
2018-05-29T03:22:19.934Z,61.40
2018-05-29T03:24:48.194Z,60.50
2018-05-29T03:27:15.692Z,60.50
2018-05-29T03:29:43.951Z,61.30
2018-05-29T03:32:12.204Z,63.30
2018-05-29T03:34:39.702Z,63.40
2018-05-29T03:37:07.190Z,62.10
2018-05-29T03:39:34.670Z,61.60
2018-05-29T03:42:02.160Z,62.10
2018-05-29T03:44:29.651Z,61.40
2018-05-29T03:46:57.925Z,66.10
2018-05-29T03:49:25.448Z,66.10
2018-05-29T03:51:52.905Z,68.00
2018-05-29T03:54:20.392Z,66.30
2018-05-29T03:56:47.887Z,65.90
2018-05-29T03:59:16.259Z,65.60
2018-05-29T04:01:43.774Z,64.60
2018-05-29T04:04:11.269Z,64.20
2018-05-29T04:06:38.752Z,64.20
2018-05-29T04:09:06.248Z,65.50
2018-05-29T04:11:33.732Z,67.60
2018-05-29T04:14:01.228Z,67.50
2018-05-29T04:16:28.711Z,68.20
2018-05-29T04:18:56.988Z,69.10
2018-05-29T04:21:25.267Z,67.00
2018-05-29T04:23:53.522Z,66.60
2018-05-29T04:26:21.027Z,66.60
2018-05-29T04:28:48.537Z,68.70
2018-05-29T04:31:16.035Z,68.60
2018-05-29T04:33:43.548Z,70.60
2018-05-29T04:36:11.054Z,71.10
2018-05-29T04:38:38.540Z,71.60
2018-05-29T04:41:06.808Z,72.60
2018-05-29T04:43:35.061Z,71.90
2018-05-29T04:46:02.557Z,71.90
2018-05-29T04:48:30.820Z,72.80
2018-05-29T04:50:58.356Z,72.70
2018-05-29T04:53:25.874Z,73.80
2018-05-29T04:55:53.376Z,75.00
2018-05-29T04:58:20.889Z,75.50
2018-05-29T05:00:49.140Z,73.50
2018-05-29T05:03:16.640Z,73.50
2018-05-29T05:05:44.938Z,71.70
2018-05-29T05:08:12.469Z,71.80
2018-05-29T05:10:39.982Z,72.90
2018-05-29T05:13:07.462Z,73.80
2018-05-29T05:15:34.954Z,74.10
2018-05-29T05:18:02.457Z,73.70
2018-05-29T05:20:30.030Z,75.40
2018-05-29T05:22:57.516Z,75.90
2018-05-29T05:25:25.019Z,76.20
2018-05-29T05:27:53.283Z,74.30
2018-05-29T05:30:20.766Z,74.30
2018-05-29T05:32:49.028Z,76.50
2018-05-29T05:35:16.531Z,76.50
2018-05-29T05:37:44.015Z,78.10
2018-05-29T05:40:11.534Z,76.30
2018-05-29T05:42:39.779Z,75.80
2018-05-29T05:45:07.263Z,75.80
2018-05-29T05:47:34.761Z,76.20
2018-05-29T05:50:02.250Z,75.90
2018-05-29T05:52:29.753Z,75.70
2018-05-29T05:54:57.251Z,76.00
2018-05-29T05:57:24.743Z,74.40
2018-05-29T05:59:52.240Z,74.20
2018-05-29T06:02:19.775Z,75.30
2018-05-29T06:04:47.265Z,74.60
2018-05-29T06:07:14.765Z,76.30
2018-05-29T06:09:42.260Z,75.70
2018-05-29T06:12:10.522Z,76.70
2018-05-29T06:14:38.030Z,76.70
2018-05-29T06:17:05.535Z,74.50
2018-05-29T06:19:33.021Z,72.70
2018-05-29T06:22:00.531Z,72.50
2018-05-29T06:24:28.048Z,73.30
2018-05-29T06:26:55.544Z,72.10
2018-05-29T06:29:23.057Z,71.90
2018-05-29T06:31:50.535Z,71.90
2018-05-29T06:34:18.019Z,73.50
2018-05-29T06:36:45.544Z,72.80
2018-05-29T06:39:13.107Z,76.30
2018-05-29T06:41:40.602Z,74.50
2018-05-29T06:44:08.112Z,73.60
2018-05-29T06:46:36.372Z,75.20
2018-05-29T06:49:03.849Z,75.20
2018-05-29T06:51:32.120Z,73.50
2018-05-29T06:53:59.609Z,73.50
2018-05-29T06:56:27.112Z,73.40
2018-05-29T06:58:54.607Z,73.50
2018-05-29T07:01:22.119Z,74.70
2018-05-29T07:03:49.633Z,71.30
2018-05-29T07:06:17.129Z,71.70
2018-05-29T07:08:45.368Z,70.70
2018-05-29T07:11:12.878Z,70.60
2018-05-29T07:13:40.379Z,69.60
2018-05-29T07:16:07.878Z,70.40
2018-05-29T07:18:35.371Z,71.60
2018-05-29T07:21:02.856Z,69.80
2018-05-29T07:23:30.342Z,67.40
2018-05-29T07:25:57.845Z,67.80
2018-05-29T07:28:26.111Z,67.20
2018-05-29T07:30:53.594Z,67.30
2018-05-29T07:33:21.076Z,67.50
2018-05-29T07:35:48.573Z,67.60
2018-05-29T07:38:16.079Z,66.50
2018-05-29T07:40:43.574Z,67.30
2018-05-29T07:43:11.093Z,66.90
2018-05-29T07:45:39.363Z,67.40
2018-05-29T07:48:07.667Z,67.40
2018-05-29T07:50:35.898Z,68.30
2018-05-29T07:53:03.403Z,68.20
2018-05-29T07:55:31.663Z,65.80
2018-05-29T07:57:59.156Z,65.80
2018-05-29T08:00:26.637Z,66.80
2018-05-29T08:02:54.135Z,66.90
2018-05-29T08:05:21.619Z,65.50
2018-05-29T08:07:49.125Z,66.90
2018-05-29T08:10:16.603Z,66.40
2018-05-29T08:12:44.104Z,69.40
2018-05-29T08:15:11.598Z,66.50
2018-05-29T08:17:39.099Z,64.70
2018-05-29T08:20:06.600Z,63.30
2018-05-29T08:22:34.867Z,61.40
2018-05-29T08:25:02.357Z,61.50
2018-05-29T08:27:29.859Z,61.00
2018-05-29T08:29:57.351Z,63.10
2018-05-29T08:32:24.851Z,62.00
2018-05-29T08:34:52.350Z,62.30
2018-05-29T08:37:19.854Z,61.60
2018-05-29T08:39:47.358Z,61.60
2018-05-29T08:42:14.865Z,60.50
2018-05-29T08:44:42.376Z,59.50
2018-05-29T08:47:09.869Z,62.00
2018-05-29T08:49:37.742Z,60.90
2018-05-29T08:52:05.238Z,59.70
2018-05-29T08:54:32.736Z,58.90
2018-05-29T08:57:00.244Z,58.70
2018-05-29T08:59:27.747Z,59.10
2018-05-29T09:01:56.033Z,57.20
2018-05-29T09:04:23.513Z,57.20
2018-05-29T09:06:51.035Z,57.40
2018-05-29T09:09:18.537Z,57.90
2018-05-29T09:11:46.031Z,57.30
2018-05-29T09:14:14.295Z,57.10
2018-05-29T09:16:41.771Z,57.00
2018-05-29T09:19:09.267Z,55.50
2018-05-29T09:21:36.769Z,56.40
2018-05-29T09:24:04.265Z,59.10
2018-05-29T09:26:31.747Z,57.30
2018-05-29T09:28:59.247Z,57.30
2018-05-29T09:31:27.489Z,57.30
2018-05-29T09:33:54.978Z,57.30
2018-05-29T09:36:23.261Z,58.80
2018-05-29T09:38:51.514Z,57.90
2018-05-29T09:41:19.018Z,57.90
2018-05-29T09:43:47.303Z,57.50
2018-05-29T09:46:14.817Z,57.50
2018-05-29T09:48:42.306Z,56.20
2018-05-29T09:51:10.570Z,56.90
2018-05-29T09:53:38.085Z,56.90
2018-05-29T09:56:05.571Z,57.20
2018-05-29T09:58:33.066Z,57.20
2018-05-29T10:01:00.573Z,57.00
2018-05-29T10:03:28.061Z,57.70
2018-05-29T10:05:56.325Z,57.50
2018-05-29T10:08:23.816Z,57.40
2018-05-29T10:10:51.305Z,57.30
2018-05-29T10:13:19.599Z,60.00
2018-05-29T10:15:47.839Z,58.10
2018-05-29T10:18:15.352Z,58.10
2018-05-29T10:20:42.852Z,58.00
2018-05-29T10:23:10.344Z,58.30
2018-05-29T10:25:37.848Z,58.80
2018-05-29T10:28:05.356Z,58.80
2018-05-29T10:30:32.844Z,58.20
2018-05-29T10:33:01.110Z,59.20
2018-05-29T10:35:28.590Z,59.20
2018-05-29T10:37:56.080Z,62.90
2018-05-29T10:40:23.582Z,60.00
2018-05-29T10:42:51.071Z,59.10
2018-05-29T10:45:18.568Z,57.60
2018-05-29T10:47:46.071Z,57.60
2018-05-29T10:50:13.552Z,58.00
2018-05-29T10:52:41.040Z,56.30
2018-05-29T10:55:09.300Z,56.00
2018-05-29T10:57:36.793Z,55.90
2018-05-29T11:00:05.035Z,55.40
2018-05-29T11:02:32.534Z,55.40
2018-05-29T11:05:00.781Z,54.50
2018-05-29T11:07:28.273Z,54.50
2018-05-29T11:09:56.527Z,53.60
2018-05-29T11:12:24.017Z,53.60
2018-05-29T11:14:52.303Z,56.70
2018-05-29T11:17:20.555Z,54.60
2018-05-29T11:19:48.835Z,57.30
2018-05-29T11:22:17.120Z,54.70
2018-05-29T11:24:45.397Z,54.00
2018-05-29T11:27:12.886Z,54.00
2018-05-29T11:29:41.167Z,55.40
2018-05-29T11:32:09.407Z,54.70
2018-05-29T11:34:36.893Z,54.60
2018-05-29T11:37:04.410Z,54.50
2018-05-29T11:39:31.899Z,52.30
2018-05-29T11:41:59.389Z,54.60
2018-05-29T11:44:27.685Z,53.90
2018-05-29T11:46:55.179Z,53.80
2018-05-29T11:49:22.664Z,56.00
2018-05-29T11:51:50.168Z,52.60
2018-05-29T11:54:18.433Z,53.60
2018-05-29T11:56:46.688Z,54.10
2018-05-29T11:59:14.206Z,54.10
2018-05-29T12:01:41.709Z,54.40
2018-05-29T12:04:09.201Z,54.50
2018-05-29T12:06:36.704Z,54.70
2018-05-29T12:09:04.194Z,59.30
2018-05-29T12:11:31.681Z,54.50
2018-05-29T12:13:59.186Z,55.10
2018-05-29T12:16:26.663Z,54.60
2018-05-29T12:18:54.154Z,54.50
2018-05-29T12:21:21.662Z,54.00
2018-05-29T12:23:49.176Z,54.80
2018-05-29T12:26:16.667Z,53.80
2018-05-29T12:28:44.958Z,56.10
2018-05-29T12:31:13.241Z,55.80
2018-05-29T12:33:41.492Z,57.10
2018-05-29T12:36:09.007Z,57.20
2018-05-29T12:38:36.512Z,57.40
2018-05-29T12:41:04.014Z,55.90
2018-05-29T12:43:31.524Z,55.80
2018-05-29T12:45:59.005Z,54.40
2018-05-29T12:48:26.491Z,55.40
2018-05-29T12:50:54.769Z,55.60
2018-05-29T12:53:22.280Z,55.60
2018-05-29T12:55:49.749Z,56.40
2018-05-29T12:58:17.265Z,57.60
2018-05-29T13:00:45.527Z,57.70
2018-05-29T13:03:13.021Z,57.70
2018-05-29T13:05:41.283Z,58.90
2018-05-29T13:08:08.779Z,58.90
2018-05-29T13:10:36.295Z,59.80
2018-05-29T13:13:03.785Z,59.80
2018-05-29T13:15:31.284Z,56.40
2018-05-29T13:17:58.801Z,56.80
2018-05-29T13:20:27.085Z,57.20
2018-05-29T13:22:55.346Z,57.70
2018-05-29T13:25:22.851Z,57.70
2018-05-29T13:27:50.360Z,57.20
2018-05-29T13:30:17.833Z,56.40
2018-05-29T13:32:45.362Z,57.10
2018-05-29T13:35:12.933Z,56.60
2018-05-29T13:37:40.354Z,55.40
2018-05-29T13:40:08.623Z,54.20
2018-05-29T13:42:36.133Z,54.10
2018-05-29T13:45:03.626Z,54.50
2018-05-29T13:47:31.133Z,54.10
2018-05-29T13:49:58.614Z,54.00
2018-05-29T13:52:26.100Z,52.10
2018-05-29T13:54:54.374Z,54.40
2018-05-29T13:57:21.861Z,54.40
2018-05-29T13:59:49.342Z,50.70
2018-05-29T14:02:17.619Z,52.70
2018-05-29T14:04:45.100Z,52.10
2018-05-29T14:07:12.578Z,52.10
2018-05-29T14:09:40.084Z,52.30
2018-05-29T14:12:07.613Z,54.10
2018-05-29T14:14:35.105Z,52.50
2018-05-29T14:17:02.603Z,52.60
2018-05-29T14:19:30.866Z,50.80
2018-05-29T14:21:58.397Z,50.70
2018-05-29T14:24:25.929Z,48.30
2018-05-29T14:26:54.178Z,47.90
2018-05-29T14:29:21.679Z,47.30
2018-05-29T14:31:49.169Z,50.90
2018-05-29T14:34:16.693Z,46.90
2018-05-29T14:36:44.945Z,46.90
2018-05-29T14:39:12.459Z,46.90
2018-05-29T14:41:39.957Z,44.70
2018-05-29T14:44:07.544Z,44.80
2018-05-29T14:46:34.963Z,44.00
2018-05-29T14:49:02.466Z,45.60
2018-05-29T14:51:29.956Z,44.40
2018-05-29T14:53:57.433Z,44.70
2018-05-29T14:56:24.945Z,42.70
2018-05-29T14:58:52.484Z,43.60
2018-05-29T15:01:19.970Z,43.50
2018-05-29T15:03:47.468Z,44.00
2018-05-29T15:06:14.992Z,42.90
2018-05-29T15:08:42.502Z,45.50
2018-05-29T15:11:10.018Z,47.40
2018-05-29T15:13:37.531Z,45.50
2018-05-29T15:16:05.030Z,47.30
2018-05-29T15:18:32.566Z,47.50
2018-05-29T15:21:00.038Z,50.20
2018-05-29T15:23:27.520Z,52.20
2018-05-29T15:25:55.792Z,52.60
2018-05-29T15:28:23.306Z,52.60
2018-05-29T15:30:50.824Z,50.50
2018-05-29T15:33:18.338Z,46.50
2018-05-29T15:35:45.829Z,45.90
2018-05-29T15:38:13.318Z,47.80
2018-05-29T15:40:40.832Z,48.70
2018-05-29T15:43:08.346Z,48.50
2018-05-29T15:45:35.873Z,48.00
2018-05-29T15:48:03.364Z,47.70
2018-05-29T15:50:30.864Z,46.50
2018-05-29T15:52:58.368Z,45.70
2018-05-29T15:55:25.877Z,45.40
2018-05-29T15:57:53.375Z,45.00
2018-05-29T16:00:21.655Z,43.90
2018-05-29T16:02:49.149Z,43.90
2018-05-29T16:05:16.644Z,41.70
2018-05-29T16:07:44.136Z,41.20
2018-05-29T16:10:12.417Z,42.10
2018-05-29T16:12:39.935Z,42.00
2018-05-29T16:15:08.223Z,44.10
2018-05-29T16:17:35.721Z,44.10
2018-05-29T16:20:03.993Z,48.70
2018-05-29T16:22:31.482Z,48.50
2018-05-29T16:24:59.725Z,49.70
2018-05-29T16:27:27.235Z,49.70
2018-05-29T16:29:54.723Z,51.00
2018-05-29T16:32:22.235Z,55.40
2018-05-29T16:34:50.513Z,55.30
2018-05-29T16:37:17.994Z,55.30
2018-05-29T16:39:46.257Z,55.90
2018-05-29T16:42:14.524Z,54.30
2018-05-29T16:44:42.003Z,54.30
2018-05-29T16:47:09.505Z,54.50
2018-05-29T16:49:37.028Z,54.00
2018-05-29T16:52:05.293Z,56.00
2018-05-29T16:54:32.785Z,55.40
2018-05-29T16:57:01.058Z,55.00
2018-05-29T16:59:28.565Z,55.00
2018-05-29T17:01:56.086Z,56.40
2018-05-29T17:04:24.342Z,56.70
2018-05-29T17:06:51.840Z,56.70
2018-05-29T17:09:19.337Z,57.10
2018-05-29T17:11:46.856Z,56.30
2018-05-29T17:14:15.118Z,58.20
2018-05-29T17:16:42.647Z,58.10
2018-05-29T17:19:10.135Z,58.80
2018-05-29T17:21:37.630Z,56.70
2018-05-29T17:24:05.897Z,58.00
2018-05-29T17:26:33.380Z,58.00
2018-05-29T17:29:00.876Z,57.60
2018-05-29T17:31:28.408Z,57.00
2018-05-29T17:33:55.892Z,59.80
2018-05-29T17:36:23.418Z,59.50
2018-05-29T17:38:51.686Z,58.70
2018-05-29T17:41:19.180Z,58.60
2018-05-29T17:43:47.435Z,58.10
2018-05-29T17:46:14.920Z,58.10
2018-05-29T17:48:43.161Z,60.00
2018-05-29T17:51:10.700Z,60.00
2018-05-29T17:53:38.193Z,60.20
2018-05-29T17:56:05.883Z,62.00
2018-05-29T17:58:33.571Z,61.40
2018-05-29T18:01:01.075Z,62.40
2018-05-29T18:03:28.752Z,62.30
2018-05-29T18:05:57.045Z,62.90
2018-05-29T18:08:24.529Z,62.90
2018-05-29T18:10:52.795Z,64.20
2018-05-29T18:13:20.500Z,64.00
2018-05-29T18:15:48.017Z,64.90
2018-05-29T18:18:15.731Z,65.50
2018-05-29T18:20:43.502Z,65.40
2018-05-29T18:23:11.229Z,66.00
2018-05-29T18:25:38.769Z,66.30
2018-05-29T18:28:06.386Z,66.50
2018-05-29T18:30:33.959Z,66.80
2018-05-29T18:33:01.466Z,67.10
2018-05-29T18:35:29.021Z,68.70
2018-05-29T18:37:56.569Z,67.90
2018-05-29T18:40:24.114Z,68.30
2018-05-29T18:42:51.641Z,68.80
2018-05-29T18:45:19.141Z,69.30
2018-05-29T18:47:46.666Z,69.80
2018-05-29T18:50:14.180Z,70.60
2018-05-29T18:52:41.673Z,71.10
2018-05-29T18:55:09.203Z,71.40
2018-05-29T18:57:36.692Z,72.40
2018-05-29T19:00:04.953Z,71.90
2018-05-29T19:02:32.458Z,71.90
2018-05-29T19:04:59.948Z,70.30
2018-05-29T19:07:28.210Z,71.40
2018-05-29T19:09:55.774Z,71.40
2018-05-29T19:12:23.208Z,71.80
2018-05-29T19:14:50.706Z,71.20
2018-05-29T19:17:18.206Z,71.30
2018-05-29T19:19:45.709Z,70.80
2018-05-29T19:22:13.216Z,71.10
2018-05-29T19:24:41.486Z,72.10
2018-05-29T19:27:09.743Z,72.10
2018-05-29T19:29:37.265Z,72.10
2018-05-29T19:32:04.756Z,72.20
2018-05-29T19:34:32.248Z,73.80
2018-05-29T19:37:00.524Z,73.20
2018-05-29T19:39:28.030Z,73.10
2018-05-29T19:41:55.510Z,73.40
2018-05-29T19:44:22.997Z,73.00
2018-05-29T19:46:50.491Z,72.60
2018-05-29T19:49:17.982Z,73.20
2018-05-29T19:51:45.519Z,72.80
2018-05-29T19:54:13.023Z,73.80
2018-05-29T19:56:40.509Z,74.50
2018-05-29T19:59:08.017Z,74.80
2018-05-29T20:01:35.507Z,75.40
2018-05-29T20:04:02.997Z,75.50
2018-05-29T20:06:30.502Z,75.20
2018-05-29T20:08:58.749Z,74.20
2018-05-29T20:11:26.233Z,74.20
2018-05-29T20:13:54.497Z,74.90
2018-05-29T20:16:21.995Z,74.90
2018-05-29T20:18:49.474Z,74.70
2018-05-29T20:21:16.977Z,74.20
2018-05-29T20:23:44.477Z,75.60
2018-05-29T20:26:12.739Z,76.00
2018-05-29T20:28:40.225Z,75.90
2018-05-29T20:31:07.731Z,75.00
2018-05-29T20:33:35.229Z,75.80
2018-05-29T20:36:03.501Z,75.40
2018-05-29T20:38:30.995Z,75.40
2018-05-29T20:40:58.505Z,76.20
2018-05-29T20:43:26.009Z,77.00
2018-05-29T20:45:54.280Z,77.00
2018-05-29T20:48:22.551Z,77.50
2018-05-29T20:50:50.080Z,77.50
2018-05-29T20:53:17.572Z,78.00
2018-05-29T20:55:45.083Z,78.10
2018-05-29T20:58:12.608Z,76.70
2018-05-29T21:00:40.099Z,77.70
2018-05-29T21:03:07.592Z,77.00
2018-05-29T21:05:35.098Z,77.30
2018-05-29T21:08:02.601Z,77.20
2018-05-29T21:10:30.097Z,77.70
2018-05-29T21:12:57.582Z,77.90
2018-05-29T21:15:25.109Z,77.70
2018-05-29T21:17:52.584Z,77.60
2018-05-29T21:20:20.069Z,77.20
2018-05-29T21:22:47.592Z,76.70
2018-05-29T21:25:15.078Z,77.30
2018-05-29T21:27:42.570Z,76.50
2018-05-29T21:30:10.064Z,76.30
2018-05-29T21:32:37.561Z,76.50
2018-05-29T21:35:05.097Z,76.80
2018-05-29T21:37:33.351Z,76.80
2018-05-29T21:40:01.620Z,76.40
2018-05-29T21:42:29.883Z,76.60
2018-05-29T21:44:57.390Z,76.60
2018-05-29T21:47:24.878Z,76.40
2018-05-29T21:49:52.374Z,76.80
2018-05-29T21:52:19.877Z,77.80
2018-05-29T21:54:47.370Z,77.30
2018-05-29T21:57:14.872Z,76.80
2018-05-29T21:59:42.375Z,76.60
2018-05-29T22:02:09.863Z,77.70
2018-05-29T22:04:37.395Z,78.40
2018-05-29T22:07:04.886Z,78.60
2018-05-29T22:09:32.389Z,79.10
2018-05-29T22:11:59.900Z,79.80
2018-05-29T22:14:27.393Z,79.30
2018-05-29T22:16:54.894Z,79.50
2018-05-29T22:19:23.150Z,78.90
2018-05-29T22:21:50.653Z,78.90
2018-05-29T22:24:18.130Z,78.90
2018-05-29T22:26:45.619Z,79.40
2018-05-29T22:29:13.124Z,79.10
2018-05-29T22:31:41.408Z,78.10
2018-05-29T22:34:09.680Z,78.80
2018-05-29T22:36:37.941Z,79.80
2018-05-29T22:39:05.437Z,79.80
2018-05-29T22:41:33.692Z,79.40
2018-05-29T22:44:01.185Z,79.40
2018-05-29T22:46:28.699Z,79.20
2018-05-29T22:48:56.187Z,78.70
2018-05-29T22:51:23.679Z,78.80
2018-05-29T22:53:51.187Z,79.40
2018-05-29T22:56:18.698Z,78.10
2018-05-29T22:58:46.175Z,78.30
2018-05-29T23:01:13.670Z,78.30
2018-05-29T23:03:41.179Z,78.40
2018-05-29T23:06:09.446Z,78.10
2018-05-29T23:08:36.932Z,78.10
2018-05-29T23:11:05.192Z,79.70
2018-05-29T23:13:32.684Z,79.60
2018-05-29T23:16:00.184Z,79.10
2018-05-29T23:18:28.433Z,78.40
2018-05-29T23:20:55.943Z,78.30
2018-05-29T23:23:23.419Z,78.30
2018-05-29T23:25:50.915Z,77.90
2018-05-29T23:28:18.422Z,78.60
2018-05-29T23:30:45.908Z,78.90
2018-05-29T23:33:13.401Z,78.70
2018-05-29T23:35:40.933Z,80.00
2018-05-29T23:38:08.417Z,79.80
2018-05-29T23:40:36.666Z,80.30
2018-05-29T23:43:04.201Z,80.10
2018-05-29T23:45:31.703Z,81.20
2018-05-29T23:47:59.204Z,80.80
2018-05-29T23:50:26.706Z,80.70
2018-05-29T23:52:54.191Z,80.90
2018-05-29T23:55:21.695Z,80.60
2018-05-29T23:57:49.191Z,80.30
